Wetter

Nordholz:

METAR:

2020/01/17 20:20 ETMN 172020Z 23009KT 9000 SCT010 BKN039 08/07 Q1012 BLU

TAF:

2020/01/17 12:35 TAF ETMN 171130Z 1712/1721 18010KT 9999 NSW SCT020 BKN080 BECMG 1714/1716 19010KT 8000 -RA SCT010 BKN020 TEMPO 1715/1718 19010KT 4000 RADZ SCT005 OVC010 TEMPO 1718/1721 19010KT 3000 DZRA BKN005 OVC010

Wind EDXN:

17.01. 20:40z 210/12G16kt
17.01. 20:50z 210/14G17kt
17.01. 21:00z 210/11G17kt
17.01. 21:10z 210/13G17kt
17.01. 21:20z 220/15G21kt
17.01. 21:30z 220/17G24kt
17.01. 21:40z 230/16G28kt
17.01. 21:50z 230/16G21kt
17.01. 22:00z 230/14G21kt
17.01. 22:10z 220/15G20kt

Bremen:

METAR:

2020/01/17 20:20 EDDW 172020Z 22009KT 9999 FEW020 08/07 Q1013 NOSIG

TAF:

2020/01/17 18:27 TAF COR EDDW 171721Z 1718/1818 22010KT 9999 SCT012 BKN020 TEMPO 1718/1809 BKN012 PROB40 TEMPO 1718/1723 4000 -RA BKN007 PROB30 TEMPO 1801/1809 22015G25KT PROB40 TEMPO 1809/1816 24015G30KT 4500 SHRAGS BKN012CB

Hamburg:

METAR:

2020/01/17 20:20 EDDH 172020Z 22010KT 200V270 5000 -RADZ FEW005 BKN007 08/07 Q1012 TEMPO 4000 SCT007 BKN012

TAF:

2020/01/17 18:27 TAF COR EDDH 171720Z 1718/1824 22010KT 9999 OVC020 TEMPO 1718/1809 BKN012 PROB40 TEMPO 1719/1724 4000 -RA BKN007 PROB30 TEMPO 1802/1809 23015G25KT PROB40 TEMPO 1809/1816 24015G30KT 4500 SHRAGS BKN012CB

Hannover:

METAR:

2020/01/17 20:20 EDDV 172020Z 24010KT 9999 FEW014 BKN028 09/07 Q1015 NOSIG

TAF:

2020/01/17 18:27 TAF EDDV 171700Z 1718/1818 20007KT 9999 BKN030 TEMPO 1718/1809 BKN014 PROB30 TEMPO 1719/1724 BKN009 PROB30 TEMPO 1810/1816 24015G25KT 4500 SHRAGS BKN012CB

Wikipedia Artikel: METARTAF

Daten von Aviation Weather Center der NOAA, es kann keine Garantie für Aktualität und Richtigkeit der Daten übernommen werden.

Die Nutzung dieser Daten zur Flugplanung ist nicht zulässig!

Inoffizielle ATIS 🙂